createdAt,value
2023-02-03T00:03:01.218Z,3.53
2023-02-03T00:08:07.763Z,3.54
2023-02-03T00:13:14.971Z,3.40
2023-02-03T00:18:22.550Z,3.74
2023-02-03T00:23:32.699Z,3.83
2023-02-03T00:28:37.787Z,3.73
2023-02-03T00:33:45.297Z,3.65
2023-02-03T00:38:51.066Z,3.58
2023-02-03T00:44:00.207Z,3.48
2023-02-03T00:49:08.253Z,3.41
2023-02-03T00:54:13.761Z,3.36
2023-02-03T00:59:19.899Z,3.36
2023-02-03T01:04:28.232Z,3.54
2023-02-03T01:09:36.958Z,3.34
2023-02-03T01:14:41.873Z,3.61
2023-02-03T01:19:49.554Z,3.69
2023-02-03T01:24:56.665Z,3.64
2023-02-03T01:30:01.882Z,3.67
2023-02-03T01:35:10.543Z,3.74
2023-02-03T01:40:16.389Z,3.40
2023-02-03T01:45:22.543Z,3.40
2023-02-03T01:50:35.300Z,2.98
2023-02-03T01:55:43.988Z,3.21
2023-02-03T02:00:50.285Z,3.31
2023-02-03T02:06:03.490Z,3.19
2023-02-03T02:11:11.805Z,3.22
2023-02-03T02:16:22.609Z,3.21
2023-02-03T02:21:51.056Z,3.12
2023-02-03T02:27:06.925Z,3.11
2023-02-03T02:32:24.641Z,3.26
2023-02-03T02:37:41.332Z,3.16
2023-02-03T02:43:01.318Z,3.19
2023-02-03T02:48:18.122Z,3.15
2023-02-03T02:53:27.057Z,3.32
2023-02-03T02:58:35.025Z,3.41
2023-02-03T03:03:45.121Z,3.33
2023-02-03T03:08:55.924Z,3.45
2023-02-03T03:14:02.990Z,3.36
2023-02-03T03:19:13.883Z,3.46
2023-02-03T03:24:25.118Z,3.50
2023-02-03T03:29:35.935Z,3.54
2023-02-03T03:34:44.808Z,3.64
2023-02-03T03:39:54.167Z,3.50
2023-02-03T03:45:04.953Z,3.53
2023-02-03T03:50:18.623Z,3.67
2023-02-03T03:55:24.720Z,3.71
2023-02-03T04:00:33.817Z,3.77
2023-02-03T04:05:42.598Z,3.77
2023-02-03T04:10:47.958Z,3.78
2023-02-03T04:15:53.196Z,3.99
2023-02-03T04:21:00.790Z,4.09
2023-02-03T04:26:06.096Z,4.18
2023-02-03T04:31:11.486Z,4.32
2023-02-03T04:36:19.591Z,4.50
2023-02-03T04:41:24.613Z,4.59
2023-02-03T04:46:29.870Z,4.82
2023-02-03T04:51:40.316Z,4.84
2023-02-03T04:56:47.986Z,4.97
2023-02-03T05:01:53.244Z,5.05
2023-02-03T05:07:00.841Z,5.12
2023-02-03T05:12:05.832Z,5.14
2023-02-03T05:17:10.838Z,5.26
2023-02-03T05:22:18.478Z,5.21
2023-02-03T05:27:23.921Z,5.29
2023-02-03T05:32:30.241Z,5.34
2023-02-03T05:37:38.249Z,5.35
2023-02-03T05:42:43.287Z,5.40
2023-02-03T05:47:48.311Z,5.41
2023-02-03T05:52:55.956Z,5.40
2023-02-03T05:58:01.269Z,5.44
2023-02-03T06:03:08.021Z,5.53
2023-02-03T06:08:28.699Z,5.51
2023-02-03T06:13:33.929Z,5.55
2023-02-03T06:18:38.874Z,5.59
2023-02-03T06:23:46.533Z,5.65
2023-02-03T06:28:51.593Z,5.61
2023-02-03T06:33:57.435Z,5.71
2023-02-03T06:39:05.822Z,5.70
2023-02-03T06:44:11.984Z,5.79
2023-02-03T06:49:17.463Z,5.77
2023-02-03T06:54:25.466Z,5.80
2023-02-03T06:59:30.388Z,5.88
2023-02-03T07:04:35.490Z,5.93
2023-02-03T07:09:49.267Z,5.98
2023-02-03T07:14:58.200Z,5.94
2023-02-03T07:20:03.174Z,5.85
2023-02-03T07:25:16.852Z,6.00
2023-02-03T07:30:22.161Z,6.03
2023-02-03T07:35:27.346Z,5.91
2023-02-03T07:40:34.956Z,5.96
2023-02-03T07:45:40.011Z,6.01
2023-02-03T07:50:47.435Z,6.01
2023-02-03T07:55:57.396Z,6.02
2023-02-03T08:01:13.848Z,6.07
2023-02-03T08:06:19.562Z,6.00
2023-02-03T08:11:29.963Z,6.05
2023-02-03T08:16:43.907Z,5.99
2023-02-03T08:21:55.720Z,5.98
2023-02-03T08:27:03.723Z,5.83
2023-02-03T08:32:11.894Z,5.85
2023-02-03T08:37:18.538Z,5.86
2023-02-03T08:42:26.355Z,5.89
2023-02-03T08:47:31.458Z,5.88
2023-02-03T08:52:36.603Z,5.83
2023-02-03T08:57:44.866Z,5.88
2023-02-03T09:02:50.739Z,5.83
2023-02-03T09:07:55.708Z,5.92
2023-02-03T09:13:03.251Z,5.89
2023-02-03T09:18:08.308Z,5.86
2023-02-03T09:23:14.976Z,5.81
2023-02-03T09:28:26.550Z,5.85
2023-02-03T09:33:32.564Z,5.93
2023-02-03T09:38:40.202Z,5.89
2023-02-03T09:43:53.106Z,5.94
2023-02-03T09:49:02.507Z,5.92
2023-02-03T09:54:16.289Z,5.91
2023-02-03T09:59:24.806Z,5.99
2023-02-03T10:04:40.117Z,5.94
2023-02-03T10:10:00.058Z,5.95
2023-02-03T10:15:27.585Z,6.02
2023-02-03T10:20:38.806Z,6.02
2023-02-03T10:25:47.617Z,6.06
2023-02-03T10:31:03.078Z,6.03
2023-02-03T10:36:22.697Z,6.05
2023-02-03T10:41:28.462Z,6.07
2023-02-03T10:46:39.399Z,6.12
2023-02-03T10:51:49.859Z,6.08
2023-02-03T10:56:54.876Z,6.16
2023-02-03T11:02:03.486Z,6.18
2023-02-03T11:07:29.665Z,6.19
2023-02-03T11:12:34.880Z,6.22
2023-02-03T11:17:47.440Z,6.30
2023-02-03T11:22:52.487Z,6.29
2023-02-03T11:27:58.989Z,6.35
2023-02-03T11:33:18.910Z,6.36
2023-02-03T11:38:34.983Z,6.37
2023-02-03T11:43:41.931Z,6.39
2023-02-03T11:49:04.954Z,6.55
2023-02-03T11:54:25.588Z,6.63
2023-02-03T12:00:10.703Z,6.73
2023-02-03T12:05:51.717Z,6.78
2023-02-03T12:11:09.645Z,6.81
2023-02-03T12:16:28.887Z,6.79
2023-02-03T12:21:47.835Z,6.83
2023-02-03T12:27:00.699Z,6.88
2023-02-03T12:32:15.155Z,6.92
2023-02-03T12:37:26.950Z,6.97
2023-02-03T12:42:39.985Z,7.05
2023-02-03T12:47:50.975Z,7.05
2023-02-03T12:53:06.069Z,7.04
2023-02-03T12:58:28.221Z,7.06
2023-02-03T13:04:09.327Z,7.13
2023-02-03T13:15:09.962Z,5.93
2023-02-03T13:20:23.394Z,5.98
2023-02-03T13:25:35.825Z,6.12
2023-02-03T13:31:18.241Z,6.41
2023-02-03T13:37:06.803Z,6.37
2023-02-03T13:42:22.850Z,6.53
2023-02-03T13:47:34.085Z,6.77
2023-02-03T13:52:47.669Z,6.67
2023-02-03T13:57:55.240Z,6.71
2023-02-03T14:03:21.823Z,6.93
2023-02-03T14:09:01.117Z,7.25
2023-02-03T14:14:36.409Z,7.04
2023-02-03T14:20:00.339Z,7.28
2023-02-03T14:25:09.841Z,7.20
2023-02-03T14:30:18.834Z,7.03
2023-02-03T14:35:32.804Z,6.88
2023-02-03T14:40:46.022Z,6.99
2023-02-03T14:46:20.993Z,6.88
2023-02-03T14:51:45.205Z,6.81
2023-02-03T14:57:16.211Z,6.75
2023-02-03T15:02:26.553Z,6.54
2023-02-03T15:07:44.892Z,6.50
2023-02-03T15:12:54.230Z,6.47
2023-02-03T15:18:02.244Z,6.36
2023-02-03T15:23:23.448Z,6.12
2023-02-03T15:28:29.631Z,5.89
2023-02-03T15:33:38.062Z,5.66
2023-02-03T15:38:52.658Z,5.60
2023-02-03T15:44:03.319Z,5.71
2023-02-03T15:49:21.658Z,5.82
2023-02-03T15:54:41.129Z,5.91
2023-02-03T15:59:49.441Z,6.04
2023-02-03T16:04:55.017Z,6.05
2023-02-03T16:10:04.477Z,6.23
2023-02-03T16:15:24.378Z,6.16
2023-02-03T16:20:33.447Z,6.20
2023-02-03T16:25:41.057Z,6.24
2023-02-03T16:31:10.459Z,6.28
2023-02-03T16:36:29.772Z,6.33
2023-02-03T16:41:51.647Z,6.25
2023-02-03T16:47:08.975Z,6.38
2023-02-03T16:52:14.173Z,6.41
2023-02-03T16:57:25.462Z,6.41
2023-02-03T17:02:30.526Z,6.33
2023-02-03T17:07:35.487Z,6.37
2023-02-03T17:12:45.170Z,6.36
2023-02-03T17:17:50.117Z,6.40
2023-02-03T17:22:55.162Z,6.41
2023-02-03T17:28:02.696Z,6.37
2023-02-03T17:33:12.387Z,6.41
2023-02-03T17:38:17.890Z,6.45
2023-02-03T17:54:06.704Z,6.39
2023-02-03T17:59:15.353Z,6.37
2023-02-03T18:04:20.276Z,6.42
2023-02-03T18:09:25.164Z,6.34
2023-02-03T18:14:32.929Z,6.46
2023-02-03T18:19:38.292Z,6.38
2023-02-03T18:24:45.051Z,6.38
2023-02-03T18:29:52.714Z,6.34
2023-02-03T18:34:57.854Z,6.31
2023-02-03T18:40:02.824Z,6.23
2023-02-03T18:45:12.837Z,6.20
2023-02-03T18:50:17.960Z,6.19
2023-02-03T18:55:23.201Z,6.21
2023-02-03T19:00:31.205Z,6.04
2023-02-03T19:05:39.078Z,5.93
2023-02-03T19:10:48.938Z,5.94
2023-02-03T19:15:59.947Z,5.96
2023-02-03T19:21:05.522Z,5.86
2023-02-03T19:26:12.165Z,5.71
2023-02-03T19:31:22.670Z,5.82
2023-02-03T19:36:32.682Z,5.77
2023-02-03T19:41:44.940Z,5.81
2023-02-03T19:46:52.687Z,5.65
2023-02-03T19:51:57.657Z,5.29
2023-02-03T19:57:03.109Z,5.14
2023-02-03T20:02:14.839Z,5.04
2023-02-03T20:07:20.272Z,5.14
2023-02-03T20:12:25.301Z,5.39
2023-02-03T20:17:33.256Z,5.28
2023-02-03T20:22:41.348Z,5.24
2023-02-03T20:27:52.962Z,5.06
2023-02-03T20:33:04.847Z,4.83
2023-02-03T20:38:10.704Z,4.77
2023-02-03T20:43:19.477Z,4.84
2023-02-03T20:48:31.532Z,4.71
2023-02-03T20:53:37.100Z,4.74
2023-02-03T20:58:43.403Z,4.74
2023-02-03T21:04:03.980Z,4.71
2023-02-03T21:09:16.578Z,4.78
2023-02-03T21:14:26.467Z,4.80
2023-02-03T21:19:36.711Z,4.78
2023-02-03T21:24:45.648Z,4.76
2023-02-03T21:29:50.612Z,4.71
2023-02-03T21:34:58.311Z,4.71
2023-02-03T21:40:03.566Z,4.61
2023-02-03T21:45:28.543Z,4.62
2023-02-03T21:50:42.833Z,4.59
2023-02-03T21:55:47.795Z,4.61
2023-02-03T22:00:55.961Z,4.59
2023-02-03T22:06:18.843Z,4.57
2023-02-03T22:11:27.796Z,4.58
2023-02-03T22:16:32.900Z,4.61
2023-02-03T22:21:40.479Z,4.47
2023-02-03T22:26:45.396Z,4.48
2023-02-03T22:31:50.714Z,4.47
2023-02-03T22:36:58.511Z,4.43
2023-02-03T22:42:05.862Z,4.49
2023-02-03T22:47:11.075Z,4.36
2023-02-03T22:52:18.592Z,4.42
2023-02-03T22:57:23.640Z,4.38
2023-02-03T23:02:28.612Z,4.38
2023-02-03T23:07:37.213Z,4.42
2023-02-03T23:12:43.433Z,4.43
2023-02-03T23:17:50.806Z,4.41
2023-02-03T23:23:02.494Z,4.44
2023-02-03T23:28:08.016Z,4.44
2023-02-03T23:33:12.933Z,4.55
2023-02-03T23:38:20.850Z,4.49
2023-02-03T23:43:26.104Z,4.45
2023-02-03T23:48:31.195Z,4.45
2023-02-03T23:53:38.697Z,4.06
2023-02-03T23:58:43.597Z,4.10
